createdAt,value
2023-07-11T00:00:51.534Z,101857.59
2023-07-11T00:03:18.092Z,101851.31
2023-07-11T00:05:44.718Z,101857.59
2023-07-11T00:08:11.256Z,101851.28
2023-07-11T00:10:37.754Z,101844.69
2023-07-11T00:13:04.213Z,101852.25
2023-07-11T00:15:30.759Z,101846.44
2023-07-11T00:17:57.304Z,101849.13
2023-07-11T00:20:24.008Z,101849.75
2023-07-11T00:22:50.743Z,101845.81
2023-07-11T00:25:17.279Z,101844.25
2023-07-11T00:27:43.826Z,101851.78
2023-07-11T00:30:10.902Z,101840.44
2023-07-11T00:32:37.495Z,101845.03
2023-07-11T00:35:04.367Z,101846.13
2023-07-11T00:37:31.070Z,101837.47
2023-07-11T00:39:57.533Z,101839.84
2023-07-11T00:42:25.639Z,101836.69
2023-07-11T00:44:59.087Z,101829.28
2023-07-11T00:47:27.740Z,101832.56
2023-07-11T00:49:59.021Z,101826.91
2023-07-11T00:52:27.897Z,101824.53
2023-07-11T00:54:58.200Z,101820.88
2023-07-11T00:57:27.757Z,101821.38
2023-07-11T00:59:54.395Z,101814.44
2023-07-11T01:02:26.799Z,101811.31
2023-07-11T01:04:53.499Z,101818.22
2023-07-11T01:07:26.164Z,101820.41
2023-07-11T01:09:53.019Z,101810.66
2023-07-11T01:12:20.266Z,101801.53
2023-07-11T01:14:49.227Z,101799.00
2023-07-11T01:17:28.870Z,101794.28
2023-07-11T01:19:56.578Z,101793.97
2023-07-11T01:22:24.570Z,101790.50
2023-07-11T01:24:52.182Z,101790.22
2023-07-11T01:27:21.664Z,101786.56
2023-07-11T01:29:50.191Z,101782.66
2023-07-11T01:32:17.920Z,101779.00
2023-07-11T01:34:44.599Z,101785.28
2023-07-11T01:37:11.387Z,101769.25
2023-07-11T01:39:38.181Z,101764.22
2023-07-11T01:42:05.306Z,101749.91
2023-07-11T01:44:32.338Z,101747.69
2023-07-11T01:47:03.368Z,101741.84
2023-07-11T01:49:30.370Z,101745.31
2023-07-11T01:52:23.996Z,101746.59
2023-07-11T01:54:51.662Z,101743.59
2023-07-11T01:57:18.610Z,101740.94
2023-07-11T01:59:47.419Z,101735.25
2023-07-11T02:02:13.983Z,101737.59
2023-07-11T02:04:40.516Z,101736.53
2023-07-11T02:07:07.460Z,101734.63
2023-07-11T02:09:34.356Z,101736.84
2023-07-11T02:12:00.803Z,101724.56
2023-07-11T02:14:27.280Z,101724.41
2023-07-11T02:16:54.535Z,101720.94
2023-07-11T02:19:23.077Z,101723.16
2023-07-11T02:21:50.000Z,101705.66
2023-07-11T02:24:18.288Z,101701.72
2023-07-11T02:26:45.396Z,101704.88
2023-07-11T02:29:12.040Z,101705.66
2023-07-11T02:31:40.096Z,101698.75
2023-07-11T02:34:06.730Z,101697.16
2023-07-11T02:36:33.575Z,101689.59
2023-07-11T02:39:00.050Z,101682.72
2023-07-11T02:41:27.073Z,101675.00
2023-07-11T02:43:53.885Z,101663.66
2023-07-11T02:46:20.908Z,101661.78
2023-07-11T02:48:49.301Z,101661.75
2023-07-11T02:51:15.846Z,101663.94
2023-07-11T02:53:42.362Z,101663.16
2023-07-11T02:56:09.039Z,101652.50
2023-07-11T02:58:35.774Z,101658.31
2023-07-11T03:01:03.441Z,101652.81
2023-07-11T03:03:30.045Z,101640.88
2023-07-11T03:05:57.224Z,101636.16
2023-07-11T03:08:23.920Z,101636.31
2023-07-11T03:10:50.722Z,101638.50
2023-07-11T03:13:19.057Z,101631.88
2023-07-11T03:15:45.673Z,101631.41
2023-07-11T03:18:14.772Z,101628.59
2023-07-11T03:20:43.099Z,101632.03
2023-07-11T03:23:12.122Z,101629.50
2023-07-11T03:25:38.848Z,101621.34
2023-07-11T03:28:05.592Z,101612.38
2023-07-11T03:30:32.886Z,101606.25
2023-07-11T03:32:59.386Z,101611.75
2023-07-11T03:35:29.020Z,101610.50
2023-07-11T03:37:55.616Z,101616.13
2023-07-11T03:40:22.155Z,101603.88
2023-07-11T03:42:49.037Z,101607.66
2023-07-11T03:45:15.762Z,101609.84
2023-07-11T03:47:43.497Z,101601.34
2023-07-11T03:50:10.836Z,101587.53
2023-07-11T03:52:37.382Z,101597.91
2023-07-11T03:55:04.122Z,101590.97
2023-07-11T03:57:30.662Z,101580.94
2023-07-11T03:59:58.269Z,101583.78
2023-07-11T04:02:25.295Z,101580.31
2023-07-11T04:04:51.816Z,101575.78
2023-07-11T04:07:18.322Z,101579.84
2023-07-11T04:09:44.889Z,101579.53
2023-07-11T04:12:11.738Z,101564.63
2023-07-11T04:14:39.690Z,101569.97
2023-07-11T04:17:07.449Z,101567.78
2023-07-11T04:19:34.049Z,101574.97
2023-07-11T04:22:00.505Z,101557.41
2023-07-11T04:24:27.545Z,101550.47
2023-07-11T04:26:53.997Z,101552.06
2023-07-11T04:29:20.534Z,101552.06
2023-07-11T04:31:47.056Z,101546.25
2023-07-11T04:34:13.553Z,101547.19
2023-07-11T04:36:40.030Z,101542.00
2023-07-11T04:39:06.625Z,101547.50
2023-07-11T04:41:33.153Z,101540.91
2023-07-11T04:44:00.660Z,101533.97
2023-07-11T04:46:28.256Z,101536.50
2023-07-11T04:48:54.758Z,101533.81
2023-07-11T04:51:21.225Z,101531.63
2023-07-11T04:53:47.778Z,101539.94
2023-07-11T04:56:14.573Z,101520.97
2023-07-11T04:58:41.341Z,101521.59
2023-07-11T05:01:13.541Z,101515.00
2023-07-11T05:03:40.601Z,101514.41
2023-07-11T05:06:08.790Z,101509.38
2023-07-11T05:08:35.768Z,101505.78
2023-07-11T05:11:08.249Z,101489.13
2023-07-11T05:13:36.584Z,101498.22
2023-07-11T05:16:06.673Z,101487.84
2023-07-11T05:18:36.186Z,101484.53
2023-07-11T05:21:02.640Z,101488.78
2023-07-11T05:23:31.368Z,101480.63
2023-07-11T05:25:57.996Z,101484.72
2023-07-11T05:28:28.288Z,101477.47
2023-07-11T05:30:55.413Z,101477.78
2023-07-11T05:33:21.857Z,101476.53
2023-07-11T05:35:59.092Z,101474.47
2023-07-11T05:38:25.728Z,101478.25
2023-07-11T05:40:52.540Z,101464.06
2023-07-11T05:43:19.006Z,101469.38
2023-07-11T05:45:46.139Z,101456.97
2023-07-11T05:48:13.503Z,101461.00
2023-07-11T05:50:39.987Z,101456.94
2023-07-11T05:53:06.893Z,101457.53
2023-07-11T05:55:33.357Z,101447.63
2023-07-11T05:57:59.875Z,101441.94
2023-07-11T06:00:26.577Z,101444.44
2023-07-11T06:02:53.146Z,101447.91
2023-07-11T06:05:20.186Z,101446.91
2023-07-11T06:07:48.387Z,101435.72
2023-07-11T06:10:14.985Z,101442.59
2023-07-11T06:12:41.494Z,101440.84
2023-07-11T06:15:08.354Z,101443.38
2023-07-11T06:17:34.920Z,101435.59
2023-07-11T06:20:01.673Z,101433.00
2023-07-11T06:22:28.202Z,101434.84
2023-07-11T06:24:54.831Z,101426.63
2023-07-11T06:27:21.332Z,101432.22
2023-07-11T06:29:48.048Z,101436.28
2023-07-11T06:32:14.619Z,101407.78
2023-07-11T06:34:41.144Z,101427.03
2023-07-11T06:37:07.649Z,101424.97
2023-07-11T06:39:34.112Z,101424.09
2023-07-11T06:42:00.571Z,101421.00
2023-07-11T06:44:27.056Z,101412.59
2023-07-11T06:46:54.072Z,101404.44
2023-07-11T06:49:20.570Z,101410.03
2023-07-11T06:51:47.104Z,101401.34
2023-07-11T06:54:13.579Z,101407.59
2023-07-11T06:56:40.128Z,101412.41
2023-07-11T06:59:06.610Z,101415.63
2023-07-11T07:04:03.980Z,101407.28
2023-07-11T07:06:32.226Z,101402.16
2023-07-11T07:08:58.698Z,101403.13
2023-07-11T07:11:25.214Z,101404.63
2023-07-11T07:14:04.749Z,101407.50
2023-07-11T07:16:37.116Z,101395.56
2023-07-11T07:19:04.954Z,101405.72
2023-07-11T07:21:31.782Z,101403.91
2023-07-11T07:23:58.510Z,101405.44
2023-07-11T07:26:25.146Z,101406.44
2023-07-11T07:28:51.932Z,101396.34
2023-07-11T07:31:18.512Z,101393.97
2023-07-11T07:33:45.070Z,101380.41
2023-07-11T07:36:13.072Z,101384.50
2023-07-11T07:38:40.580Z,101382.88
2023-07-11T07:41:10.064Z,101388.97
2023-07-11T07:43:37.599Z,101380.94
2023-07-11T07:46:05.451Z,101378.22
2023-07-11T07:48:32.104Z,101373.25
2023-07-11T07:51:19.011Z,101393.25
2023-07-11T07:53:45.623Z,101379.28
2023-07-11T07:56:20.510Z,101366.75
2023-07-11T07:58:48.111Z,101379.03
2023-07-11T08:01:16.243Z,101367.81
2023-07-11T08:03:43.177Z,101370.94
2023-07-11T08:08:40.593Z,101363.03
2023-07-11T08:11:08.500Z,101363.50
2023-07-11T08:13:57.045Z,101361.63
2023-07-11T08:18:55.352Z,101370.66
2023-07-11T08:21:21.917Z,101367.41
2023-07-11T08:23:48.374Z,101371.94
2023-07-11T08:26:15.045Z,101367.97
2023-07-11T08:28:43.001Z,101360.81
2023-07-11T08:31:11.393Z,101367.53
2023-07-11T08:33:40.497Z,101352.16
2023-07-11T08:36:07.010Z,101340.31
2023-07-11T08:38:33.491Z,101352.88
2023-07-11T08:41:28.692Z,101352.13
2023-07-11T08:44:03.938Z,101341.44
2023-07-11T08:46:34.449Z,101339.25
2023-07-11T08:49:01.878Z,101334.81
2023-07-11T08:51:34.387Z,101332.22
2023-07-11T08:54:08.022Z,101328.00
2023-07-11T08:56:42.065Z,101342.75
2023-07-11T08:59:17.238Z,101332.66
2023-07-11T09:02:03.749Z,101341.63
2023-07-11T09:04:31.409Z,101339.69
2023-07-11T09:07:07.528Z,101334.66
2023-07-11T09:09:35.217Z,101340.75
2023-07-11T09:12:21.197Z,101327.91
2023-07-11T09:15:02.896Z,101333.34
2023-07-11T09:18:07.830Z,101335.81
2023-07-11T09:20:44.116Z,101329.97
2023-07-11T09:23:40.130Z,101326.78
2023-07-11T09:26:11.314Z,101327.13
2023-07-11T09:28:39.362Z,101336.41
2023-07-11T09:31:15.074Z,101311.63
2023-07-11T09:33:45.418Z,101315.53
2023-07-11T09:36:35.294Z,101331.03
2023-07-11T09:39:25.380Z,101327.09
2023-07-11T09:42:10.443Z,101315.13
2023-07-11T09:44:38.180Z,101306.41
2023-07-11T09:47:18.241Z,101309.50
2023-07-11T09:49:46.181Z,101295.63
2023-07-11T09:52:27.221Z,101303.94
2023-07-11T09:55:07.194Z,101303.09
2023-07-11T09:57:35.189Z,101307.25
2023-07-11T10:00:20.876Z,101313.81
2023-07-11T10:02:49.197Z,101311.50
2023-07-11T10:05:22.330Z,101306.13
2023-07-11T10:08:14.848Z,101302.19
2023-07-11T10:10:52.608Z,101302.38
2023-07-11T10:13:26.531Z,101300.22
2023-07-11T10:16:00.164Z,101306.16
2023-07-11T10:18:32.282Z,101294.03
2023-07-11T10:21:07.453Z,101297.16
2023-07-11T10:23:36.462Z,101300.97
2023-07-11T10:26:21.373Z,101302.06
2023-07-11T10:29:19.709Z,101309.94
2023-07-11T10:32:01.305Z,101292.03
2023-07-11T10:34:48.782Z,101287.06
2023-07-11T10:37:40.657Z,101292.06
2023-07-11T10:40:25.527Z,101295.38
2023-07-11T10:43:18.527Z,101287.00
2023-07-11T10:45:46.922Z,101296.59
2023-07-11T10:48:23.232Z,101291.69
2023-07-11T10:51:05.199Z,101285.47
2023-07-11T10:53:45.155Z,101298.53
2023-07-11T10:56:24.768Z,101293.31
2023-07-11T10:58:51.813Z,101284.91
2023-07-11T11:01:30.438Z,101294.06
2023-07-11T11:04:44.803Z,101292.16
2023-07-11T11:07:32.229Z,101284.69
2023-07-11T11:10:11.139Z,101292.16
2023-07-11T11:13:12.968Z,101292.97
2023-07-11T11:15:43.833Z,101281.56
2023-07-11T11:18:20.789Z,101277.63
2023-07-11T11:21:19.659Z,101280.75
2023-07-11T11:24:05.985Z,101274.41
2023-07-11T11:26:42.165Z,101267.19
2023-07-11T11:29:30.536Z,101262.81
2023-07-11T11:32:17.165Z,101274.44
2023-07-11T11:35:04.048Z,101262.22
2023-07-11T11:37:53.727Z,101259.47
2023-07-11T11:40:23.074Z,101261.78
2023-07-11T11:43:02.468Z,101261.06
2023-07-11T11:45:58.622Z,101262.75
2023-07-11T11:50:57.730Z,101264.22
2023-07-11T11:53:47.667Z,101276.59
2023-07-11T11:56:23.117Z,101283.78
2023-07-11T11:58:59.891Z,101274.44
2023-07-11T12:01:35.921Z,101255.22
2023-07-11T12:04:08.679Z,101266.53
2023-07-11T12:06:36.127Z,101269.91
2023-07-11T12:09:18.239Z,101258.69
2023-07-11T12:12:06.208Z,101273.63
2023-07-11T12:14:44.339Z,101263.28
2023-07-11T12:17:33.066Z,101265.06
2023-07-11T12:20:03.049Z,101255.09
2023-07-11T12:22:38.519Z,101251.22
2023-07-11T12:25:07.927Z,101251.59
2023-07-11T12:27:34.591Z,101254.38
2023-07-11T12:30:14.319Z,101258.72
2023-07-11T12:32:47.144Z,101253.22
2023-07-11T12:35:17.620Z,101242.13
2023-07-11T12:38:00.443Z,101239.31
2023-07-11T12:41:04.473Z,101235.53
2023-07-11T12:43:34.357Z,101225.50
2023-07-11T12:46:24.005Z,101236.50
2023-07-11T12:48:51.416Z,101227.31
2023-07-11T12:51:35.721Z,101225.91
2023-07-11T12:54:06.781Z,101219.47
2023-07-11T12:56:33.233Z,101235.81
2023-07-11T12:58:59.743Z,101220.69
2023-07-11T13:01:26.592Z,101224.25
2023-07-11T13:03:53.098Z,101223.53
2023-07-11T13:06:27.862Z,101224.91
2023-07-11T13:08:56.832Z,101224.81
2023-07-11T13:11:28.537Z,101218.66
2023-07-11T13:13:55.722Z,101225.59
2023-07-11T13:16:25.841Z,101210.94
2023-07-11T13:18:53.405Z,101216.38
2023-07-11T13:21:20.745Z,101207.09
2023-07-11T13:23:47.473Z,101211.63
2023-07-11T13:26:21.297Z,101219.50
2023-07-11T13:29:02.355Z,101206.66
2023-07-11T13:31:32.244Z,101210.59
2023-07-11T13:34:04.027Z,101212.03
2023-07-11T13:39:04.408Z,101201.22
2023-07-11T13:41:40.572Z,101200.44
2023-07-11T13:44:16.953Z,101203.75
2023-07-11T13:46:44.630Z,101200.56
2023-07-11T13:49:20.232Z,101199.19
2023-07-11T13:51:47.212Z,101201.09
2023-07-11T13:54:24.852Z,101210.13
2023-07-11T13:56:51.413Z,101200.00
2023-07-11T13:59:18.530Z,101192.69
2023-07-11T14:01:46.085Z,101199.03
2023-07-11T14:04:21.276Z,101198.16
2023-07-11T14:06:48.093Z,101203.66
2023-07-11T14:09:15.180Z,101203.84
2023-07-11T14:11:48.183Z,101200.19
2023-07-11T14:14:33.109Z,101185.63
2023-07-11T14:17:04.189Z,101194.38
2023-07-11T14:19:34.515Z,101187.75
2023-07-11T14:22:03.644Z,101186.69
2023-07-11T14:24:30.194Z,101180.56
2023-07-11T14:26:56.709Z,101182.47
2023-07-11T14:29:26.470Z,101183.72
2023-07-11T14:31:54.134Z,101184.47
2023-07-11T14:34:28.043Z,101181.75
2023-07-11T14:36:55.233Z,101185.72
2023-07-11T14:39:22.228Z,101199.91
2023-07-11T14:41:50.501Z,101187.16
2023-07-11T14:44:27.117Z,101193.00
2023-07-11T14:46:54.238Z,101194.13
2023-07-11T14:49:21.430Z,101193.56
2023-07-11T14:51:49.100Z,101195.25
2023-07-11T14:54:21.555Z,101190.81
2023-07-11T14:59:29.439Z,101191.03
2023-07-11T15:02:03.587Z,101181.88
2023-07-11T15:17:25.959Z,101183.94
2023-07-11T15:19:52.641Z,101182.88
2023-07-11T15:22:21.852Z,101190.75
2023-07-11T15:24:56.830Z,101184.19
2023-07-11T15:27:23.732Z,101183.38
2023-07-11T15:29:50.181Z,101180.69
2023-07-11T15:32:21.590Z,101177.97
2023-07-11T15:34:48.547Z,101183.00
2023-07-11T15:37:15.859Z,101174.44
2023-07-11T15:39:43.911Z,101179.94
2023-07-11T15:42:24.736Z,101175.66
2023-07-11T15:44:53.541Z,101164.44
2023-07-11T15:47:20.463Z,101161.72
2023-07-11T15:49:47.687Z,101168.31
2023-07-11T15:52:14.752Z,101166.41
2023-07-11T15:54:41.694Z,101162.91
2023-07-11T15:57:26.475Z,101156.28
2023-07-11T15:59:53.030Z,101152.41
2023-07-11T16:02:22.278Z,101145.06
2023-07-11T16:04:48.776Z,101145.03
2023-07-11T16:07:16.668Z,101144.25
2023-07-11T16:09:43.175Z,101141.91
2023-07-11T16:12:12.912Z,101135.72
2023-07-11T16:14:40.111Z,101131.88
2023-07-11T16:17:18.975Z,101124.88
2023-07-11T16:19:52.032Z,101126.03
2023-07-11T16:22:21.553Z,101114.81
2023-07-11T16:24:48.265Z,101114.50
2023-07-11T16:27:18.341Z,101101.75
2023-07-11T16:29:46.362Z,101118.03
2023-07-11T16:32:14.552Z,101123.13
2023-07-11T16:34:41.715Z,101124.31
2023-07-11T16:37:19.877Z,101119.69
2023-07-11T16:39:47.865Z,101116.59
2023-07-11T16:42:22.817Z,101124.38
2023-07-11T16:44:49.708Z,101112.75
2023-07-11T16:47:17.153Z,101109.66
2023-07-11T16:49:49.182Z,101107.28
2023-07-11T16:52:15.871Z,101104.94
2023-07-11T16:54:42.347Z,101103.78
2023-07-11T16:57:19.177Z,101099.56
2023-07-11T16:59:46.328Z,101104.19
2023-07-11T17:02:21.870Z,101114.69
2023-07-11T17:04:52.537Z,101115.88
2023-07-11T17:07:19.411Z,101111.22
2023-07-11T17:09:45.916Z,101099.59
2023-07-11T17:12:13.313Z,101100.00
2023-07-11T17:14:40.337Z,101101.50
2023-07-11T17:17:16.021Z,101095.28
2023-07-11T17:19:42.535Z,101096.81
2023-07-11T17:22:13.681Z,101084.81
2023-07-11T17:24:40.061Z,101087.88
2023-07-11T17:27:13.559Z,101092.56
2023-07-11T17:29:40.096Z,101099.56
2023-07-11T17:32:11.782Z,101093.41
2023-07-11T17:34:38.515Z,101098.44
2023-07-11T17:37:12.381Z,101098.81
2023-07-11T17:39:39.227Z,101090.31
2023-07-11T17:42:08.777Z,101086.81
2023-07-11T17:49:52.569Z,101078.31
2023-07-11T17:52:23.676Z,101078.69
2023-07-11T17:54:50.149Z,101072.50
2023-07-11T17:57:19.241Z,101062.44
2023-07-11T17:59:45.827Z,101066.69
2023-07-11T18:02:26.985Z,101059.38
2023-07-11T18:04:57.757Z,101043.09
2023-07-11T18:07:27.181Z,101049.31
2023-07-11T18:09:53.781Z,101051.63
2023-07-11T18:12:27.920Z,101056.63
2023-07-11T18:14:54.689Z,101060.13
2023-07-11T18:17:27.759Z,101060.09
2023-07-11T18:19:54.612Z,101046.16
2023-07-11T18:22:23.844Z,101036.84
2023-07-11T18:24:51.328Z,101045.72
2023-07-11T18:27:27.444Z,101042.91
2023-07-11T18:29:56.046Z,101044.78
2023-07-11T18:32:23.441Z,101038.19
2023-07-11T18:34:52.743Z,101030.09
2023-07-11T18:37:19.606Z,101014.22
2023-07-11T18:39:48.887Z,101018.81
2023-07-11T18:42:21.208Z,101021.13
2023-07-11T18:44:50.597Z,101024.19
2023-07-11T18:47:30.469Z,101007.22
2023-07-11T18:49:57.008Z,101014.84
2023-07-11T18:52:25.114Z,101024.09
2023-07-11T18:54:53.126Z,101024.34
2023-07-11T18:57:21.535Z,101012.72
2023-07-11T18:59:48.888Z,101015.25
2023-07-11T19:02:16.791Z,100988.59
2023-07-11T19:04:44.672Z,100992.75
2023-07-11T19:07:14.184Z,100958.00
2023-07-11T19:09:45.171Z,100974.94
2023-07-11T19:12:35.838Z,101008.47
2023-07-11T19:15:06.362Z,101007.22
2023-07-11T19:17:38.643Z,101004.47
2023-07-11T19:20:17.324Z,101008.56
2023-07-11T19:22:45.283Z,101013.41
2023-07-11T19:25:17.278Z,101018.78
2023-07-11T19:27:46.297Z,100991.75
2023-07-11T19:30:17.437Z,101019.91
2023-07-11T19:32:45.968Z,101019.75
2023-07-11T19:35:13.654Z,101003.16
2023-07-11T19:37:46.390Z,100988.84
2023-07-11T19:40:18.089Z,100989.06
2023-07-11T19:42:44.806Z,100981.66
2023-07-11T19:45:13.591Z,100985.47
2023-07-11T19:47:40.094Z,100985.72
2023-07-11T19:50:18.427Z,100981.50
2023-07-11T19:52:44.912Z,100984.50
2023-07-11T19:55:11.400Z,100988.66
2023-07-11T19:57:37.979Z,100983.59
2023-07-11T20:00:21.773Z,101000.41
2023-07-11T20:02:49.282Z,101015.81
2023-07-11T20:05:16.459Z,101010.28
2023-07-11T20:07:43.161Z,101003.28
2023-07-11T20:10:37.754Z,100996.19
2023-07-11T20:13:06.532Z,100999.88
2023-07-11T20:15:35.002Z,100992.03
2023-07-11T20:18:01.572Z,101005.69
2023-07-11T20:20:31.687Z,101014.41
2023-07-11T20:22:58.400Z,101020.56
2023-07-11T20:25:25.391Z,101015.47
2023-07-11T20:27:55.132Z,101007.31
2023-07-11T20:30:29.007Z,101018.72
2023-07-11T20:32:55.515Z,101019.34
2023-07-11T20:35:22.033Z,101025.41
2023-07-11T20:37:48.788Z,101016.56
2023-07-11T20:40:24.314Z,101008.88
2023-07-11T20:42:51.266Z,101011.56
2023-07-11T20:45:19.956Z,101024.94
2023-07-11T20:47:47.142Z,101017.56
2023-07-11T20:50:40.035Z,101006.81
2023-07-11T20:53:07.493Z,101003.72
2023-07-11T20:55:36.914Z,100978.59
2023-07-11T20:58:11.008Z,100977.13
2023-07-11T21:00:39.805Z,100980.03
2023-07-11T21:03:06.356Z,100974.53
2023-07-11T21:05:35.950Z,100967.53
2023-07-11T21:08:02.941Z,100963.63
2023-07-11T21:10:41.326Z,100960.94
2023-07-11T21:13:12.534Z,100960.06
2023-07-11T21:15:40.037Z,100956.56
2023-07-11T21:18:09.815Z,100963.84
2023-07-11T21:20:41.399Z,100971.78
2023-07-11T21:23:08.319Z,100987.97
2023-07-11T21:25:36.572Z,100984.88
2023-07-11T21:28:06.572Z,100989.09
2023-07-11T21:30:41.865Z,100989.81
2023-07-11T21:33:11.032Z,101002.91
2023-07-11T21:35:38.548Z,100999.97
2023-07-11T21:38:05.977Z,101030.66
2023-07-11T21:40:36.287Z,101023.59
2023-07-11T21:43:04.093Z,101032.84
2023-07-11T21:45:36.478Z,101030.31
2023-07-11T21:48:04.175Z,101022.88
2023-07-11T21:50:45.250Z,101022.66
2023-07-11T21:53:13.647Z,101025.06
2023-07-11T21:55:42.429Z,101013.22
2023-07-11T21:58:17.727Z,101021.34
2023-07-11T22:00:45.004Z,101019.28
2023-07-11T22:03:16.373Z,101015.44
2023-07-11T22:05:43.381Z,101006.34
2023-07-11T22:08:13.193Z,101004.88
2023-07-11T22:10:39.755Z,101008.00
2023-07-11T22:13:06.724Z,100993.78
2023-07-11T22:15:33.288Z,101000.63
2023-07-11T22:18:00.874Z,100994.84
2023-07-11T22:20:38.829Z,100980.47
2023-07-11T22:23:06.248Z,100987.00
2023-07-11T22:25:33.176Z,100992.25
2023-07-11T22:27:59.826Z,100997.63
2023-07-11T22:30:29.208Z,100982.16
2023-07-11T22:32:57.089Z,100970.13
2023-07-11T22:35:26.682Z,100992.72
2023-07-11T22:37:54.840Z,100994.97
2023-07-11T22:40:34.671Z,100989.53
2023-07-11T22:43:18.579Z,100995.59
2023-07-11T22:45:46.739Z,100987.72
2023-07-11T22:48:14.638Z,100980.72
2023-07-11T22:50:49.354Z,100983.75
2023-07-11T22:53:22.242Z,100986.25
2023-07-11T22:55:56.953Z,100985.75
2023-07-11T22:58:26.932Z,100986.00
2023-07-11T23:00:55.310Z,100995.50
2023-07-11T23:03:22.587Z,100994.97
2023-07-11T23:05:49.571Z,100984.09
2023-07-11T23:08:24.925Z,100993.50
2023-07-11T23:10:51.468Z,101000.03
2023-07-11T23:13:18.279Z,101000.28
2023-07-11T23:15:51.901Z,101014.75
2023-07-11T23:18:20.947Z,101018.09
2023-07-11T23:20:53.420Z,101003.38
2023-07-11T23:23:24.954Z,100996.16
2023-07-11T23:25:52.485Z,100999.69
2023-07-11T23:28:27.833Z,100994.66
2023-07-11T23:30:56.375Z,101002.78
2023-07-11T23:33:24.836Z,100990.06
2023-07-11T23:35:52.849Z,100986.97
2023-07-11T23:38:19.267Z,100983.19
2023-07-11T23:40:47.933Z,100976.16
2023-07-11T23:43:22.059Z,100991.03
2023-07-11T23:45:51.287Z,100982.88
2023-07-11T23:48:17.929Z,100991.03
2023-07-11T23:50:46.772Z,100989.47
2023-07-11T23:53:13.240Z,100982.53
2023-07-11T23:55:39.738Z,100982.53
2023-07-11T23:58:14.197Z,100989.38
